createdAt,value
2019-04-03T00:00:04.397Z,86.52
2019-04-03T00:02:34.020Z,86.37
2019-04-03T00:05:02.970Z,86.74
2019-04-03T00:07:32.195Z,86.13
2019-04-03T00:10:00.438Z,85.17
2019-04-03T00:12:28.712Z,84.79
2019-04-03T00:14:56.975Z,84.56
2019-04-03T00:17:25.237Z,85.29
2019-04-03T00:19:53.497Z,85.17
2019-04-03T00:22:22.302Z,85.15
2019-04-03T00:24:52.004Z,85.58
2019-04-03T00:27:22.228Z,85.15
2019-04-03T00:29:52.147Z,85.69
2019-04-03T00:32:20.323Z,85.53
2019-04-03T00:34:48.592Z,85.60
2019-04-03T00:37:16.866Z,85.21
2019-04-03T00:39:45.125Z,85.08
2019-04-03T00:42:14.046Z,84.47
2019-04-03T00:44:42.320Z,84.47
2019-04-03T00:47:10.590Z,84.52
2019-04-03T00:49:38.854Z,84.39
2019-04-03T00:52:07.111Z,84.71
2019-04-03T00:54:35.393Z,84.74
2019-04-03T00:57:03.652Z,84.36
2019-04-03T00:59:31.920Z,85.19
2019-04-03T01:02:00.178Z,85.38
2019-04-03T01:04:29.097Z,85.27
2019-04-03T01:06:58.705Z,85.21
2019-04-03T01:09:29.145Z,85.27
2019-04-03T01:11:57.321Z,86.17
2019-04-03T01:14:25.604Z,86.16
2019-04-03T01:16:53.863Z,86.35
2019-04-03T01:19:22.144Z,86.33
2019-04-03T01:21:50.399Z,85.65
2019-04-03T01:24:18.711Z,85.42
2019-04-03T01:26:46.928Z,86.20
2019-04-03T01:29:15.207Z,86.22
2019-04-03T01:31:44.686Z,86.19
2019-04-03T01:34:13.489Z,87.14
2019-04-03T01:36:41.740Z,87.75
2019-04-03T01:39:10.022Z,87.89
2019-04-03T01:41:38.278Z,87.58
2019-04-03T01:44:07.324Z,86.80
2019-04-03T01:46:35.583Z,87.25
2019-04-03T01:49:03.861Z,87.36
2019-04-03T01:51:32.109Z,87.36
2019-04-03T01:54:02.375Z,86.87
2019-04-03T01:56:30.508Z,86.60
2019-04-03T01:58:59.028Z,86.66
2019-04-03T02:01:27.285Z,86.67
2019-04-03T02:03:55.707Z,86.42
2019-04-03T02:06:23.997Z,86.55
2019-04-03T02:08:52.386Z,86.31
2019-04-03T02:11:20.599Z,85.99
2019-04-03T02:13:50.993Z,85.88
2019-04-03T02:16:18.903Z,85.70
2019-04-03T02:18:47.194Z,86.44
2019-04-03T02:21:15.446Z,85.62
2019-04-03T02:23:43.723Z,85.96
2019-04-03T02:26:11.988Z,86.07
2019-04-03T02:28:40.249Z,85.60
2019-04-03T02:31:08.496Z,86.00
2019-04-03T02:33:36.773Z,86.65
2019-04-03T02:36:05.794Z,87.09
2019-04-03T02:38:34.419Z,87.23
2019-04-03T02:41:04.133Z,86.98
2019-04-03T02:43:32.661Z,86.84
2019-04-03T02:46:00.938Z,87.11
2019-04-03T02:48:29.274Z,86.64
2019-04-03T02:50:57.913Z,87.10
2019-04-03T02:53:27.528Z,87.07
2019-04-03T02:55:56.754Z,87.00
2019-04-03T02:58:24.986Z,86.59
2019-04-03T03:00:53.345Z,87.32
2019-04-03T03:03:22.606Z,86.61
2019-04-03T03:05:50.941Z,86.98
2019-04-03T03:08:22.501Z,87.92
2019-04-03T03:10:51.592Z,86.95
2019-04-03T03:13:19.447Z,86.03
2019-04-03T03:15:47.755Z,86.66
2019-04-03T03:18:16.073Z,87.58
2019-04-03T03:20:44.680Z,86.59
2019-04-03T03:23:13.005Z,87.51
2019-04-03T03:25:41.318Z,87.59
2019-04-03T03:28:13.179Z,87.32
2019-04-03T03:30:46.402Z,88.00
2019-04-03T03:33:28.798Z,87.75
2019-04-03T03:35:45.226Z,87.51
2019-04-03T03:38:10.786Z,87.39
2019-04-03T03:40:39.910Z,86.44
2019-04-03T03:43:08.161Z,85.20
2019-04-03T03:45:37.157Z,83.55
2019-04-03T03:48:08.075Z,83.43
2019-04-03T03:50:36.256Z,82.54
2019-04-03T03:53:04.510Z,81.97
2019-04-03T03:55:32.785Z,82.32
2019-04-03T03:58:01.110Z,83.08
2019-04-03T04:00:29.556Z,83.48
2019-04-03T04:02:57.805Z,84.63
2019-04-03T04:05:26.104Z,85.27
2019-04-03T04:07:55.628Z,85.02
2019-04-03T04:10:26.296Z,84.67
2019-04-03T04:12:54.631Z,84.96
2019-04-03T04:15:22.892Z,85.30
2019-04-03T04:17:52.319Z,86.18
2019-04-03T04:20:20.951Z,85.78
2019-04-03T04:22:51.402Z,85.85
2019-04-03T04:25:19.881Z,85.16
2019-04-03T04:27:49.475Z,85.57
2019-04-03T04:30:19.645Z,85.26
2019-04-03T04:32:47.918Z,84.72
2019-04-03T04:35:16.353Z,84.40
2019-04-03T04:37:44.612Z,84.61
2019-04-03T04:40:12.891Z,84.91
2019-04-03T04:42:41.217Z,85.19
2019-04-03T04:45:09.776Z,84.75
2019-04-03T04:47:39.788Z,85.25
2019-04-03T04:50:08.035Z,85.03
2019-04-03T04:52:37.082Z,84.74
2019-04-03T04:55:06.074Z,84.57
2019-04-03T04:57:34.541Z,84.13
2019-04-03T05:00:03.239Z,84.27
2019-04-03T05:02:32.634Z,84.20
2019-04-03T05:05:00.972Z,84.11
2019-04-03T05:07:30.862Z,84.14
2019-04-03T05:09:59.128Z,84.11
2019-04-03T05:12:27.557Z,85.14
2019-04-03T05:14:55.779Z,84.52
2019-04-03T05:17:26.136Z,85.00
2019-04-03T05:19:54.041Z,85.77
2019-04-03T05:22:23.945Z,85.68
2019-04-03T05:24:51.993Z,85.05
2019-04-03T05:27:20.285Z,85.29
2019-04-03T05:29:48.542Z,85.49
2019-04-03T05:32:16.817Z,85.15
2019-04-03T05:34:45.076Z,84.98
2019-04-03T05:37:13.924Z,83.83
2019-04-03T05:39:43.060Z,83.73
2019-04-03T05:42:12.213Z,82.22
2019-04-03T05:44:40.525Z,81.05
2019-04-03T05:47:09.439Z,81.30
2019-04-03T05:49:37.704Z,80.19
2019-04-03T05:52:06.760Z,78.98
2019-04-03T05:54:35.008Z,78.53
2019-04-03T05:57:04.005Z,78.46
2019-04-03T05:59:33.687Z,78.39
2019-04-03T06:02:14.058Z,78.48
2019-04-03T06:04:32.806Z,77.83
2019-04-03T06:07:01.297Z,77.41
2019-04-03T06:09:29.837Z,78.07
2019-04-03T06:11:59.117Z,78.50
2019-04-03T06:14:27.570Z,77.97
2019-04-03T06:16:56.718Z,77.54
2019-04-03T06:19:25.083Z,77.31
2019-04-03T06:21:53.452Z,77.42
2019-04-03T06:24:23.811Z,77.21
2019-04-03T06:26:51.700Z,77.95
2019-04-03T06:29:19.945Z,78.09
2019-04-03T06:31:48.625Z,78.21
2019-04-03T06:34:16.837Z,78.36
2019-04-03T06:36:45.117Z,77.98
2019-04-03T06:39:14.442Z,78.35
2019-04-03T06:41:43.577Z,78.30
2019-04-03T06:44:11.935Z,79.02
2019-04-03T06:46:40.191Z,78.39
2019-04-03T06:49:08.965Z,79.00
2019-04-03T06:51:37.902Z,79.27
2019-04-03T06:54:08.231Z,78.40
2019-04-03T06:56:36.921Z,78.39
2019-04-03T06:59:06.653Z,77.58
2019-04-03T07:01:35.035Z,78.33
2019-04-03T07:04:04.491Z,77.80
2019-04-03T07:06:33.829Z,77.99
2019-04-03T07:09:04.925Z,78.40
2019-04-03T07:11:33.001Z,75.50
2019-04-03T07:14:01.847Z,76.92
2019-04-03T07:16:30.434Z,75.54
2019-04-03T07:18:58.710Z,75.59
2019-04-03T07:21:27.861Z,75.00
2019-04-03T07:23:56.403Z,74.70
2019-04-03T07:26:24.658Z,74.87
2019-04-03T07:28:52.937Z,74.21
2019-04-03T07:31:23.288Z,74.49
2019-04-03T07:33:51.207Z,74.65
2019-04-03T07:36:19.468Z,73.63
2019-04-03T07:38:48.788Z,72.45
2019-04-03T07:41:17.371Z,73.51
2019-04-03T07:43:45.752Z,74.58
2019-04-03T07:46:14.007Z,72.52
2019-04-03T07:48:42.513Z,71.36
2019-04-03T07:51:12.814Z,72.58
2019-04-03T07:53:41.401Z,69.39
2019-04-03T07:56:10.425Z,70.30
2019-04-03T07:58:38.713Z,72.25
2019-04-03T08:01:09.868Z,71.25
2019-04-03T08:03:37.080Z,69.21
2019-04-03T08:06:06.243Z,67.80
2019-04-03T08:08:34.921Z,68.24
2019-04-03T08:11:03.178Z,68.53
2019-04-03T08:13:31.547Z,68.28
2019-04-03T08:16:00.550Z,67.00
2019-04-03T08:18:28.832Z,68.39
2019-04-03T08:21:00.902Z,68.34
2019-04-03T08:23:27.100Z,67.42
2019-04-03T08:25:56.122Z,66.41
2019-04-03T08:28:29.260Z,66.17
2019-04-03T08:30:54.943Z,65.65
2019-04-03T08:33:26.276Z,66.00
2019-04-03T08:35:53.541Z,66.42
2019-04-03T08:38:21.857Z,66.96
2019-04-03T08:40:52.373Z,65.78
2019-04-03T08:43:20.156Z,65.64
2019-04-03T08:45:48.523Z,66.77
2019-04-03T08:48:18.042Z,66.44
2019-04-03T08:50:46.718Z,66.33
2019-04-03T08:53:15.661Z,66.71
2019-04-03T08:55:45.894Z,66.88
2019-04-03T08:58:14.183Z,66.74
2019-04-03T09:00:42.439Z,66.43
2019-04-03T09:03:13.955Z,66.36
2019-04-03T09:05:42.007Z,66.78
2019-04-03T09:08:10.404Z,66.76
2019-04-03T09:10:38.851Z,66.62
2019-04-03T09:13:16.897Z,68.35
2019-04-03T09:15:37.869Z,67.19
2019-04-03T09:18:06.935Z,67.20
2019-04-03T09:20:37.023Z,67.49
2019-04-03T09:23:05.428Z,67.40
2019-04-03T09:25:34.267Z,67.59
2019-04-03T09:28:03.131Z,68.14
2019-04-03T09:30:31.483Z,68.46
2019-04-03T09:33:00.401Z,67.28
2019-04-03T09:35:29.046Z,65.90
2019-04-03T09:37:57.325Z,65.72
2019-04-03T09:40:25.794Z,67.04
2019-04-03T09:42:54.155Z,66.51
2019-04-03T09:45:22.587Z,67.00
2019-04-03T09:47:51.594Z,67.01
2019-04-03T09:50:22.053Z,66.25
2019-04-03T09:52:50.656Z,67.00
2019-04-03T09:55:19.122Z,67.00
2019-04-03T09:57:47.706Z,66.62
2019-04-03T10:00:16.195Z,65.54
2019-04-03T10:02:44.453Z,65.16
2019-04-03T10:05:12.737Z,66.05
2019-04-03T10:07:40.991Z,66.62
2019-04-03T10:10:09.271Z,66.32
2019-04-03T10:12:37.532Z,65.99
2019-04-03T10:15:07.439Z,65.36
2019-04-03T10:17:37.434Z,65.82
2019-04-03T10:20:07.428Z,66.74
2019-04-03T10:22:35.685Z,65.98
2019-04-03T10:25:06.428Z,66.26
2019-04-03T10:27:34.660Z,65.10
2019-04-03T10:30:04.413Z,67.19
2019-04-03T10:32:33.609Z,67.62
2019-04-03T10:35:02.364Z,67.42
2019-04-03T10:37:30.628Z,67.22
2019-04-03T10:39:59.037Z,67.92
2019-04-03T10:42:27.247Z,68.47
2019-04-03T10:44:55.683Z,68.94
2019-04-03T10:47:30.185Z,66.68
2019-04-03T10:49:53.960Z,66.02
2019-04-03T10:52:22.635Z,65.57
2019-04-03T10:54:50.849Z,65.20
2019-04-03T10:57:19.136Z,66.06
2019-04-03T10:59:52.971Z,65.48
2019-04-03T11:02:17.962Z,66.03
2019-04-03T11:04:47.004Z,64.68
2019-04-03T11:07:15.580Z,63.93
2019-04-03T11:09:44.547Z,64.06
2019-04-03T11:12:12.746Z,65.22
2019-04-03T11:14:41.202Z,65.97
2019-04-03T11:17:09.753Z,65.78
2019-04-03T11:19:38.239Z,66.11
2019-04-03T11:22:06.654Z,64.69
2019-04-03T11:24:38.529Z,63.97
2019-04-03T11:27:05.801Z,63.63
2019-04-03T11:29:34.035Z,63.96
2019-04-03T11:32:02.291Z,64.20
2019-04-03T11:34:31.142Z,63.38
2019-04-03T11:37:00.543Z,63.63
2019-04-03T11:39:29.189Z,62.79
2019-04-03T11:41:57.696Z,63.26
2019-04-03T11:44:26.106Z,63.37
2019-04-03T11:46:55.123Z,63.22
2019-04-03T11:49:23.373Z,63.42
2019-04-03T11:51:51.888Z,63.21
2019-04-03T11:54:20.174Z,63.19
2019-04-03T11:56:49.064Z,63.71
2019-04-03T11:59:17.415Z,64.03
2019-04-03T12:01:45.627Z,62.92
2019-04-03T12:04:13.988Z,62.87
2019-04-03T12:06:42.237Z,63.38
2019-04-03T12:09:10.489Z,62.71
2019-04-03T12:11:39.501Z,61.69
2019-04-03T12:14:08.478Z,62.86
2019-04-03T12:16:37.080Z,63.00
2019-04-03T12:19:05.891Z,63.37
2019-04-03T12:21:34.741Z,63.70
2019-04-03T12:24:03.899Z,63.36
2019-04-03T12:26:32.955Z,64.25
2019-04-03T12:29:01.518Z,64.22
2019-04-03T12:31:29.859Z,65.28
2019-04-03T12:34:03.887Z,69.62
2019-04-03T12:36:28.335Z,71.90
2019-04-03T12:38:57.208Z,73.00
2019-04-03T12:41:27.149Z,75.58
2019-04-03T12:43:55.887Z,77.11
2019-04-03T12:46:41.015Z,78.27
2019-04-03T12:49:09.010Z,80.62
2019-04-03T12:51:37.677Z,81.62
2019-04-03T12:54:06.431Z,83.36
2019-04-03T12:56:34.687Z,82.74
2019-04-03T12:59:03.277Z,83.49
2019-04-03T13:01:32.166Z,83.12
2019-04-03T13:04:00.466Z,84.44
2019-04-03T13:06:29.296Z,83.86
2019-04-03T13:08:58.484Z,83.95
2019-04-03T13:11:26.732Z,84.23
2019-04-03T13:13:55.109Z,83.83
2019-04-03T13:16:23.649Z,85.08
2019-04-03T13:18:51.889Z,84.48
2019-04-03T13:21:20.158Z,83.40
2019-04-03T13:23:48.614Z,83.60
2019-04-03T13:26:16.874Z,84.14
2019-04-03T13:28:45.154Z,84.10
2019-04-03T13:31:14.949Z,83.78
2019-04-03T13:33:43.418Z,84.33
2019-04-03T13:36:11.685Z,84.83
2019-04-03T13:38:40.296Z,84.95
2019-04-03T13:41:10.635Z,84.18
2019-04-03T13:43:38.957Z,84.64
2019-04-03T13:46:07.867Z,84.13
2019-04-03T13:48:36.218Z,84.58
2019-04-03T13:51:05.575Z,84.56
2019-04-03T13:53:34.196Z,83.27
2019-04-03T13:56:05.521Z,83.72
2019-04-03T13:58:32.212Z,83.35
2019-04-03T14:01:02.992Z,85.04
2019-04-03T14:03:31.013Z,84.11
2019-04-03T14:05:59.513Z,84.89
2019-04-03T14:08:28.126Z,83.50
2019-04-03T14:10:58.245Z,84.21
2019-04-03T14:13:27.448Z,84.47
2019-04-03T14:15:56.377Z,83.27
2019-04-03T14:18:25.033Z,84.02
2019-04-03T14:20:55.327Z,82.10
2019-04-03T14:23:23.928Z,82.20
2019-04-03T14:26:03.237Z,82.37
2019-04-03T14:28:22.499Z,77.66
2019-04-03T14:30:50.777Z,76.53
2019-04-03T14:33:19.728Z,79.43
2019-04-03T14:35:53.213Z,79.33
2019-04-03T14:38:18.938Z,77.33
2019-04-03T14:40:47.236Z,78.09
2019-04-03T14:43:15.495Z,75.51
2019-04-03T14:45:45.147Z,75.38
2019-04-03T14:48:15.050Z,75.64
2019-04-03T14:50:44.300Z,77.46
2019-04-03T14:53:13.105Z,76.94
2019-04-03T14:55:48.228Z,76.85
2019-04-03T14:58:12.054Z,75.43
2019-04-03T15:00:40.418Z,75.68
2019-04-03T15:03:09.240Z,77.48
2019-04-03T15:05:39.646Z,76.46
2019-04-03T15:08:08.285Z,77.06
2019-04-03T15:10:36.576Z,76.70
2019-04-03T15:13:05.096Z,76.27
2019-04-03T15:15:33.384Z,75.91
2019-04-03T15:18:02.731Z,76.48
2019-04-03T15:20:33.242Z,76.67
2019-04-03T15:23:03.495Z,77.43
2019-04-03T15:25:31.483Z,76.87
2019-04-03T15:28:00.392Z,77.49
2019-04-03T15:30:29.247Z,77.86
2019-04-03T15:32:57.979Z,77.06
2019-04-03T15:35:26.524Z,78.18
2019-04-03T15:37:55.094Z,78.95
2019-04-03T15:40:25.846Z,79.66
2019-04-03T15:42:55.183Z,79.53
2019-04-03T15:45:25.296Z,78.79
2019-04-03T15:47:57.152Z,78.67
2019-04-03T15:50:27.275Z,77.76
2019-04-03T15:52:54.905Z,78.01
2019-04-03T15:55:25.333Z,77.39
2019-04-03T15:57:54.002Z,77.45
2019-04-03T16:00:22.982Z,78.27
2019-04-03T16:02:51.260Z,78.72
2019-04-03T16:05:20.002Z,79.13
2019-04-03T16:07:49.466Z,77.84
2019-04-03T16:10:17.693Z,78.03
2019-04-03T16:12:46.736Z,77.92
2019-04-03T16:15:15.669Z,77.68
2019-04-03T16:17:44.219Z,78.10
2019-04-03T16:20:14.278Z,78.22
2019-04-03T16:22:43.446Z,78.60
2019-04-03T16:25:12.353Z,78.01
2019-04-03T16:27:40.845Z,78.25
2019-04-03T16:30:09.757Z,78.06
2019-04-03T16:32:38.093Z,78.77
2019-04-03T16:35:07.992Z,78.94
2019-04-03T16:37:37.212Z,79.10
2019-04-03T16:40:06.879Z,78.88
2019-04-03T16:42:35.534Z,78.93
2019-04-03T16:45:08.462Z,79.86
2019-04-03T16:47:36.134Z,79.43
2019-04-03T16:50:08.290Z,80.53
2019-04-03T16:52:37.838Z,81.11
2019-04-03T16:55:07.857Z,82.43
2019-04-03T16:57:37.255Z,81.90
2019-04-03T17:00:09.190Z,83.47
2019-04-03T17:02:37.205Z,83.92
2019-04-03T17:05:06.800Z,82.71
2019-04-03T17:07:37.724Z,82.84
2019-04-03T17:10:09.354Z,83.20
2019-04-03T17:12:35.729Z,82.92
2019-04-03T17:15:05.290Z,82.18
2019-04-03T17:17:33.883Z,82.64
2019-04-03T17:20:02.385Z,83.70
2019-04-03T17:22:31.024Z,83.61
2019-04-03T17:24:59.396Z,84.31
2019-04-03T17:27:30.329Z,85.14
2019-04-03T17:29:58.709Z,85.03
2019-04-03T17:32:29.895Z,85.38
2019-04-03T17:34:58.083Z,85.10
2019-04-03T17:37:29.712Z,84.91
2019-04-03T17:39:56.695Z,84.46
2019-04-03T17:42:25.893Z,84.19
2019-04-03T17:44:55.181Z,84.53
2019-04-03T17:47:23.443Z,83.81
2019-04-03T17:49:51.731Z,83.72
2019-04-03T17:52:19.988Z,83.73
2019-04-03T17:54:48.273Z,84.39
2019-04-03T17:57:17.610Z,84.51
2019-04-03T17:59:49.007Z,85.13
2019-04-03T18:02:19.296Z,85.00
2019-04-03T18:04:48.873Z,84.79
2019-04-03T18:07:18.319Z,84.29
2019-04-03T18:09:46.576Z,85.07
2019-04-03T18:12:15.927Z,85.55
2019-04-03T18:14:44.827Z,84.82
2019-04-03T18:17:13.106Z,84.72
2019-04-03T18:19:41.885Z,83.77
2019-04-03T18:22:11.191Z,84.61
2019-04-03T18:24:39.438Z,85.13
2019-04-03T18:27:07.717Z,84.12
2019-04-03T18:29:37.981Z,84.37
2019-04-03T18:32:06.250Z,82.93
2019-04-03T18:34:36.071Z,83.64
2019-04-03T18:37:07.339Z,82.35
2019-04-03T18:39:35.157Z,82.22
2019-04-03T18:42:03.435Z,82.70
2019-04-03T18:44:31.935Z,81.83
2019-04-03T18:47:00.209Z,83.20
2019-04-03T18:49:28.462Z,83.50
2019-04-03T18:51:56.732Z,83.12
2019-04-03T18:54:25.748Z,82.57
2019-04-03T18:56:54.026Z,82.39
2019-04-03T18:59:23.967Z,82.42
2019-04-03T19:01:52.846Z,83.43
2019-04-03T19:04:23.200Z,82.83
2019-04-03T19:06:50.844Z,83.35
2019-04-03T19:09:21.242Z,83.46
2019-04-03T19:11:51.446Z,84.05
2019-04-03T19:14:27.199Z,82.54
2019-04-03T19:16:52.715Z,83.66
2019-04-03T19:19:22.850Z,83.26
2019-04-03T19:21:54.337Z,83.58
2019-04-03T19:24:22.872Z,83.54
2019-04-03T19:26:52.110Z,83.12
2019-04-03T19:29:20.939Z,83.54
2019-04-03T19:31:49.272Z,84.19
2019-04-03T19:34:20.191Z,84.59
2019-04-03T19:36:48.460Z,84.55
2019-04-03T19:39:16.765Z,85.43
2019-04-03T19:41:45.023Z,85.77
2019-04-03T19:44:13.301Z,85.87
2019-04-03T19:46:41.559Z,87.16
2019-04-03T19:49:09.834Z,87.00
2019-04-03T19:51:38.345Z,86.29
2019-04-03T19:54:06.628Z,87.58
2019-04-03T19:56:34.889Z,87.95
2019-04-03T19:59:04.850Z,88.71
2019-04-03T20:01:33.819Z,88.69
2019-04-03T20:04:02.098Z,89.27
2019-04-03T20:06:30.359Z,89.69
2019-04-03T20:09:00.924Z,89.55
2019-04-03T20:11:29.399Z,89.74
2019-04-03T20:13:58.034Z,90.08
2019-04-03T20:16:26.294Z,88.04
2019-04-03T20:18:56.484Z,88.04
2019-04-03T20:21:24.240Z,88.23
2019-04-03T20:23:52.529Z,89.16
2019-04-03T20:26:20.778Z,89.38
2019-04-03T20:28:49.819Z,89.13
2019-04-03T20:31:18.434Z,88.38
2019-04-03T20:33:46.709Z,88.19
2019-04-03T20:36:16.741Z,88.78
2019-04-03T20:38:45.097Z,88.86
2019-04-03T20:41:13.341Z,89.15
2019-04-03T20:43:43.234Z,89.64
2019-04-03T20:46:11.587Z,89.80
2019-04-03T20:48:39.878Z,89.74
2019-04-03T20:51:09.079Z,89.94
2019-04-03T20:53:37.794Z,90.43
2019-04-03T20:56:06.054Z,90.58
2019-04-03T20:58:34.330Z,90.83
2019-04-03T21:01:06.722Z,90.64
2019-04-03T21:03:32.583Z,90.58
2019-04-03T21:06:00.843Z,90.28
2019-04-03T21:08:31.424Z,89.60
2019-04-03T21:11:01.930Z,89.66
2019-04-03T21:13:30.623Z,87.88
2019-04-03T21:15:58.896Z,88.26
2019-04-03T21:18:27.951Z,88.34
2019-04-03T21:20:56.579Z,89.10
2019-04-03T21:23:24.836Z,89.61
2019-04-03T21:25:53.681Z,89.71
2019-04-03T21:28:21.933Z,89.52
2019-04-03T21:30:50.227Z,88.68
2019-04-03T21:33:18.487Z,89.45
2019-04-03T21:35:46.760Z,89.23
2019-04-03T21:38:15.017Z,89.27
2019-04-03T21:40:43.294Z,89.30
2019-04-03T21:43:11.536Z,88.64
2019-04-03T21:45:39.806Z,88.22
2019-04-03T21:48:08.060Z,89.02
2019-04-03T21:50:36.340Z,89.67
2019-04-03T21:53:04.585Z,88.61
2019-04-03T21:55:34.720Z,88.49
2019-04-03T21:58:02.833Z,87.59
2019-04-03T22:00:55.233Z,88.07
2019-04-03T22:03:23.788Z,87.85
2019-04-03T22:05:55.871Z,88.27
2019-04-03T22:08:22.599Z,88.33
2019-04-03T22:10:50.881Z,88.32
2019-04-03T22:13:19.150Z,88.46
2019-04-03T22:15:47.418Z,89.18
2019-04-03T22:18:15.675Z,88.76
2019-04-03T22:20:44.720Z,88.88
2019-04-03T22:23:12.971Z,89.58
2019-04-03T22:25:41.225Z,90.40
2019-04-03T22:28:09.512Z,90.82
2019-04-03T22:30:37.770Z,91.05
2019-04-03T22:33:06.048Z,91.11
2019-04-03T22:35:34.307Z,90.69
2019-04-03T22:38:05.295Z,90.53
2019-04-03T22:40:33.243Z,90.75
2019-04-03T22:43:03.223Z,90.38
2019-04-03T22:45:32.044Z,89.35
2019-04-03T22:48:00.322Z,89.84
2019-04-03T22:50:28.576Z,89.52
2019-04-03T22:52:56.853Z,88.96
2019-04-03T22:55:25.101Z,89.52
2019-04-03T22:57:53.373Z,89.14
2019-04-03T23:00:21.801Z,89.60
2019-04-03T23:02:50.072Z,88.70
2019-04-03T23:05:18.330Z,88.88
2019-04-03T23:07:46.608Z,89.60
2019-04-03T23:10:14.863Z,90.51
2019-04-03T23:12:43.705Z,90.48
2019-04-03T23:15:11.957Z,87.81
2019-04-03T23:17:40.800Z,88.66
2019-04-03T23:20:09.822Z,88.83
2019-04-03T23:22:38.096Z,88.75
2019-04-03T23:25:06.816Z,89.52
2019-04-03T23:27:36.526Z,89.76
2019-04-03T23:30:06.318Z,90.33
2019-04-03T23:32:34.588Z,90.05
2019-04-03T23:35:04.216Z,90.06
2019-04-03T23:37:32.493Z,90.60
2019-04-03T23:40:01.588Z,88.89
2019-04-03T23:42:29.910Z,88.05
2019-04-03T23:44:58.186Z,89.13
2019-04-03T23:47:26.439Z,89.24
2019-04-03T23:49:55.487Z,88.74
2019-04-03T23:52:23.743Z,88.92
2019-04-03T23:54:52.023Z,89.54
2019-04-03T23:57:20.274Z,89.69
2019-04-03T23:59:48.547Z,89.95
